»·PEaware :: N618ER KSBP-KRNO

N618ER :: KSBP-KRNO

FLIGHT INFORMATION

Flight Status: Arrived
Operator: Privately registered:
United States
More flights under this callsign
Pilot: Ryan E. (25987)
Aircraft: SOCATA TBM-900
(TBM9)
More flights by this aircraft type
Origin: KSBP San Luis Co Regl
United States
Destination: KRNO Reno/Tahoe Intl
United States
More flights between these airports :: More routes between these airports
Route: + JEDGI V113 HUYJO
File this flight plan on PilotEdge
Remarks:
Altitude:
(Current/Filed)
28,000ft
Speed:
(Current/Filed)
250kts
Departed: 07-Feb-20 02:08 PM
Arrived: 07-Feb-20 03:14 PM
Distance/Time
Traveled:
259nm/1:06
Distance/Time
To Go:
Arrived

Flight Plot

Page will automatically refresh every two minutes.

Flight plan parsing failed; only flown route is shown


Map Options




Map Legend


Flown Route
Filed Route
Departure Airport
Arrival Airport
Navaid (VOR, NDB)
Fix

Horizontal Profiles

Position Reports

Time Latitude Longitude Heading Altitude Ground
Speed
07-Feb-20 13:32 35.236844 -120.636761 128 203ft 0kts
07-Feb-20 13:33 35.236844 -120.636761 128 203ft 0kts
07-Feb-20 13:34 35.236844 -120.636761 128 203ft 0kts
07-Feb-20 13:35 35.236844 -120.636761 128 203ft 0kts
07-Feb-20 13:36 35.236844 -120.636761 128 203ft 0kts
07-Feb-20 13:37 35.236844 -120.636761 128 203ft 0kts
07-Feb-20 13:38 35.236844 -120.636761 128 203ft 0kts
07-Feb-20 13:39 35.236844 -120.636761 128 203ft 0kts
07-Feb-20 13:40 35.236844 -120.636761 128 203ft 0kts
07-Feb-20 13:41 35.236844 -120.636761 128 203ft 0kts
07-Feb-20 13:42 35.236844 -120.636761 128 203ft 0kts
07-Feb-20 13:43 35.236844 -120.636761 128 203ft 0kts
07-Feb-20 13:44 35.236844 -120.636761 128 203ft 0kts
07-Feb-20 13:45 35.236844 -120.636761 128 203ft 0kts
07-Feb-20 13:46 35.236844 -120.636761 128 203ft 0kts
07-Feb-20 13:47 35.236844 -120.636761 128 203ft 0kts
07-Feb-20 13:48 35.236844 -120.636761 128 203ft 0kts
07-Feb-20 13:49 35.236844 -120.636761 128 203ft 0kts
07-Feb-20 13:50 35.236844 -120.636761 128 203ft 0kts
07-Feb-20 13:51 35.236844 -120.636761 128 203ft 0kts
07-Feb-20 13:52 35.236844 -120.636761 128 203ft 0kts
07-Feb-20 13:53 35.236844 -120.636761 128 203ft 0kts
07-Feb-20 13:54 35.236844 -120.636761 128 203ft 0kts
07-Feb-20 13:55 35.236844 -120.636761 128 203ft 0kts
07-Feb-20 13:56 35.236844 -120.636761 128 203ft 0kts
07-Feb-20 13:57 35.236844 -120.636761 128 203ft 0kts
07-Feb-20 13:58 35.236844 -120.636761 128 203ft 0kts
07-Feb-20 13:59 35.236844 -120.636761 128 203ft 0kts
07-Feb-20 14:00 35.236844 -120.636761 128 203ft 0kts
07-Feb-20 14:01 35.236844 -120.636761 128 203ft 0kts
07-Feb-20 14:02 35.235462 -120.635798 125 206ft 4kts
07-Feb-20 14:03 35.233505 -120.632383 148 211ft 8kts
07-Feb-20 14:04 35.233271 -120.632394 210 211ft 0kts
07-Feb-20 14:05 35.233271 -120.632394 210 211ft 0kts
07-Feb-20 14:06 35.233137 -120.632511 221 211ft 5kts
07-Feb-20 14:07 35.240948 -120.646563 308 611ft 117kts
07-Feb-20 14:08 35.261199 -120.680951 304 2421ft 142kts
07-Feb-20 14:09 35.282017 -120.720822 304 4886ft 139kts
07-Feb-20 14:10 35.309810 -120.773477 307 5013ft 212kts
07-Feb-20 14:11 35.342948 -120.831912 307 5925ft 186kts
07-Feb-20 14:12 35.376150 -120.817462 56 7072ft 182kts
07-Feb-20 14:13 35.405541 -120.771530 41 9211ft 156kts
07-Feb-20 14:14 35.436744 -120.732356 40 11182ft 168kts
07-Feb-20 14:15 35.471351 -120.691508 20 12957ft 174kts
07-Feb-20 14:16 35.517134 -120.671643 22 14627ft 180kts
07-Feb-20 14:17 35.562104 -120.643089 23 16116ft 186kts
07-Feb-20 14:18 35.608053 -120.612568 23 17468ft 191kts
07-Feb-20 14:19 35.655297 -120.581136 23 18703ft 195kts
07-Feb-20 14:20 35.703909 -120.548712 22 20735ft 200kts
07-Feb-20 14:21 35.753195 -120.515862 22 22811ft 204kts
07-Feb-20 14:22 35.803458 -120.482270 22 24690ft 209kts
07-Feb-20 14:23 35.855647 -120.447356 22 26436ft 218kts
07-Feb-20 14:24 35.912788 -120.409060 23 27181ft 264kts
07-Feb-20 14:25 35.983003 -120.361856 23 27182ft 303kts
07-Feb-20 14:26 36.058117 -120.311320 24 27181ft 313kts
07-Feb-20 14:27 36.134798 -120.259609 24 27183ft 314kts
07-Feb-20 14:28 36.211868 -120.207518 24 27185ft 314kts
07-Feb-20 14:29 36.288594 -120.155541 24 27189ft 314kts
07-Feb-20 14:30 36.365370 -120.103411 24 27193ft 314kts
07-Feb-20 14:31 36.442051 -120.051214 24 27197ft 314kts
07-Feb-20 14:32 36.518749 -119.998913 24 27199ft 314kts
07-Feb-20 14:33 36.595311 -119.946556 23 27195ft 314kts
07-Feb-20 14:34 36.671861 -119.894105 23 27191ft 313kts
07-Feb-20 14:35 36.748314 -119.841601 23 27191ft 313kts
07-Feb-20 14:36 36.824443 -119.789206 23 27191ft 313kts
07-Feb-20 14:37 36.900820 -119.736513 23 27191ft 313kts
07-Feb-20 14:38 36.976815 -119.683958 22 27191ft 312kts
07-Feb-20 14:39 37.052935 -119.631187 22 27191ft 312kts
07-Feb-20 14:40 37.132209 -119.596228 354 27200ft 297kts
07-Feb-20 14:41 37.215276 -119.598131 353 27210ft 297kts
07-Feb-20 14:42 37.298058 -119.600139 353 27223ft 297kts
07-Feb-20 14:43 37.380707 -119.602142 353 27222ft 297kts
07-Feb-20 14:44 37.464162 -119.604180 353 26901ft 304kts
07-Feb-20 14:45 37.549240 -119.606247 353 26421ft 306kts
07-Feb-20 14:46 37.634166 -119.608335 353 25934ft 305kts
07-Feb-20 14:47 37.719045 -119.610421 353 25437ft 303kts
07-Feb-20 14:48 37.803147 -119.612480 353 24939ft 300kts
07-Feb-20 14:49 37.885990 -119.614531 353 24434ft 296kts
07-Feb-20 14:50 37.967379 -119.616535 353 24216ft 288kts
07-Feb-20 14:51 38.046601 -119.618501 353 24217ft 283kts
07-Feb-20 14:52 38.123506 -119.620417 353 24224ft 281kts
07-Feb-20 14:53 38.201935 -119.622365 353 24223ft 282kts
07-Feb-20 14:54 38.280341 -119.624321 353 24224ft 282kts
07-Feb-20 14:55 38.358764 -119.626272 353 24221ft 283kts
07-Feb-20 14:56 38.437339 -119.628244 353 24202ft 283kts
07-Feb-20 14:57 38.515973 -119.630213 353 24204ft 282kts
07-Feb-20 14:58 38.594465 -119.632186 353 24203ft 281kts
07-Feb-20 14:59 38.672633 -119.634148 353 24203ft 282kts
07-Feb-20 15:00 38.751034 -119.636137 353 23965ft 289kts
07-Feb-20 15:02 38.834627 -119.638240 353 22483ft 303kts
07-Feb-20 15:03 38.916938 -119.640339 353 20970ft 292kts
07-Feb-20 15:04 38.998693 -119.642432 353 19007ft 297kts
07-Feb-20 15:05 39.081350 -119.644536 354 16995ft 297kts
07-Feb-20 15:06 39.160341 -119.646532 354 15988ft 273kts
07-Feb-20 15:07 39.234928 -119.648678 352 15290ft 275kts
07-Feb-20 15:08 39.255273 -119.728535 252 13464ft 298kts
07-Feb-20 15:09 39.271549 -119.811900 348 11336ft 263kts
07-Feb-20 15:10 39.337745 -119.779003 21 9154ft 254kts
07-Feb-20 15:11 39.400661 -119.767604 358 7453ft 206kts
07-Feb-20 15:12 39.445365 -119.766777 359 6258ft 128kts
07-Feb-20 15:13 39.475330 -119.767011 1 4824ft 96kts
07-Feb-20 15:14 39.496970 -119.766803 14 4418ft 14kts
07-Feb-20 15:15 39.497354 -119.765695 88 4418ft 0kts
07-Feb-20 15:16 39.498588 -119.765066 19 4418ft 7kts
07-Feb-20 15:17 39.500780 -119.765027 51 4418ft 7kts
07-Feb-20 15:18 39.501986 -119.764993 156 4418ft 6kts
07-Feb-20 15:19 39.501911 -119.764748 82 4418ft 0kts
07-Feb-20 15:20 39.501909 -119.764763 87 4418ft 0kts
07-Feb-20 15:21 39.501909 -119.764763 87 4418ft 0kts
07-Feb-20 15:21 39.501909 -119.764763 87 4418ft 0kts
07-Feb-20 15:22 39.501909 -119.764763 87 4418ft 0kts
07-Feb-20 15:24 39.501909 -119.764763 87 4418ft 0kts

Navigation Log

Ident Type
Flight plan parsing failed, navigation log unavailable